sensor_id;sensor_type;location;lat;lon;timestamp;pressure;altitude;pressure_sealevel;temperature;humidity
31062;BME280;17724;53.546;9.974;2024-02-21T00:00:05;101788.16;;;11.21;100.00
31062;BME280;17724;53.546;9.974;2024-02-21T00:04:05;101791.09;;;10.96;100.00
31062;BME280;17724;53.546;9.974;2024-02-21T00:08:06;101786.69;;;10.95;100.00
31062;BME280;17724;53.546;9.974;2024-02-21T00:12:07;101771.00;;;11.07;100.00
31062;BME280;17724;53.546;9.974;2024-02-21T00:16:07;101772.34;;;10.93;100.00
31062;BME280;17724;53.546;9.974;2024-02-21T00:20:08;101763.47;;;10.91;100.00
31062;BME280;17724;53.546;9.974;2024-02-21T00:24:09;101759.88;;;10.91;100.00
31062;BME280;17724;53.546;9.974;2024-02-21T00:28:09;101765.41;;;11.02;100.00
31062;BME280;17724;53.546;9.974;2024-02-21T00:32:10;101747.91;;;10.97;100.00
31062;BME280;17724;53.546;9.974;2024-02-21T00:36:10;101735.00;;;10.97;100.00
31062;BME280;17724;53.546;9.974;2024-02-21T00:40:11;101737.09;;;10.72;100.00
31062;BME280;17724;53.546;9.974;2024-02-21T00:44:11;101728.28;;;10.81;100.00
31062;BME280;17724;53.546;9.974;2024-02-21T00:48:12;101728.50;;;10.92;100.00
31062;BME280;17724;53.546;9.974;2024-02-21T00:52:12;101725.50;;;10.70;100.00
31062;BME280;17724;53.546;9.974;2024-02-21T00:56:13;101729.59;;;10.79;100.00
31062;BME280;17724;53.546;9.974;2024-02-21T01:00:14;101712.31;;;10.60;100.00
31062;BME280;17724;53.546;9.974;2024-02-21T01:04:14;101716.44;;;10.69;100.00
31062;BME280;17724;53.546;9.974;2024-02-21T01:08:15;101712.97;;;10.74;100.00
31062;BME280;17724;53.546;9.974;2024-02-21T01:12:15;101691.66;;;10.81;100.00
31062;BME280;17724;53.546;9.974;2024-02-21T01:16:16;101695.59;;;10.97;100.00
31062;BME280;17724;53.546;9.974;2024-02-21T01:20:16;101687.69;;;10.77;100.00
31062;BME280;17724;53.546;9.974;2024-02-21T01:24:17;101694.06;;;10.89;100.00
31062;BME280;17724;53.546;9.974;2024-02-21T01:28:18;101682.19;;;10.65;100.00
31062;BME280;17724;53.546;9.974;2024-02-21T01:32:18;101685.94;;;10.94;100.00
31062;BME280;17724;53.546;9.974;2024-02-21T01:36:19;101683.88;;;10.66;100.00
31062;BME280;17724;53.546;9.974;2024-02-21T01:40:20;101670.84;;;10.62;100.00
31062;BME280;17724;53.546;9.974;2024-02-21T01:44:20;101656.09;;;10.56;100.00
31062;BME280;17724;53.546;9.974;2024-02-21T01:48:24;101654.81;;;10.70;100.00
31062;BME280;17724;53.546;9.974;2024-02-21T01:52:25;101649.78;;;10.55;100.00
31062;BME280;17724;53.546;9.974;2024-02-21T01:56:26;101629.78;;;10.48;100.00
31062;BME280;17724;53.546;9.974;2024-02-21T02:00:27;101639.44;;;10.27;100.00
31062;BME280;17724;53.546;9.974;2024-02-21T02:04:28;101624.91;;;10.50;100.00
31062;BME280;17724;53.546;9.974;2024-02-21T02:08:29;101609.22;;;10.51;100.00
31062;BME280;17724;53.546;9.974;2024-02-21T02:12:29;101589.88;;;10.57;100.00
31062;BME280;17724;53.546;9.974;2024-02-21T02:16:30;101593.81;;;10.50;100.00
31062;BME280;17724;53.546;9.974;2024-02-21T02:20:30;101565.69;;;10.59;100.00
31062;BME280;17724;53.546;9.974;2024-02-21T02:24:31;101552.06;;;10.41;100.00
31062;BME280;17724;53.546;9.974;2024-02-21T02:28:31;101535.69;;;10.46;100.00
31062;BME280;17724;53.546;9.974;2024-02-21T02:32:32;101517.75;;;10.44;100.00
31062;BME280;17724;53.546;9.974;2024-02-21T02:36:33;101488.22;;;10.39;100.00
31062;BME280;17724;53.546;9.974;2024-02-21T02:40:34;101498.97;;;10.41;100.00
31062;BME280;17724;53.546;9.974;2024-02-21T02:44:35;101497.03;;;10.53;100.00
31062;BME280;17724;53.546;9.974;2024-02-21T02:48:35;101492.91;;;10.39;100.00
31062;BME280;17724;53.546;9.974;2024-02-21T02:52:37;101490.88;;;10.46;100.00
31062;BME280;17724;53.546;9.974;2024-02-21T02:56:38;101502.91;;;10.45;100.00
31062;BME280;17724;53.546;9.974;2024-02-21T03:00:38;101506.00;;;10.60;100.00
31062;BME280;17724;53.546;9.974;2024-02-21T03:04:40;101505.91;;;10.55;100.00
31062;BME280;17724;53.546;9.974;2024-02-21T03:08:40;101538.56;;;10.51;100.00
31062;BME280;17724;53.546;9.974;2024-02-21T03:12:41;101538.63;;;10.80;100.00
31062;BME280;17724;53.546;9.974;2024-02-21T03:16:41;101541.19;;;10.70;100.00
31062;BME280;17724;53.546;9.974;2024-02-21T03:20:42;101538.78;;;10.73;100.00
31062;BME280;17724;53.546;9.974;2024-02-21T03:24:43;101534.56;;;10.82;100.00
31062;BME280;17724;53.546;9.974;2024-02-21T03:28:44;101544.13;;;10.80;100.00
31062;BME280;17724;53.546;9.974;2024-02-21T03:32:46;101555.13;;;10.92;100.00
31062;BME280;17724;53.546;9.974;2024-02-21T03:36:47;101548.34;;;10.82;100.00
31062;BME280;17724;53.546;9.974;2024-02-21T03:40:47;101537.44;;;10.76;100.00
31062;BME280;17724;53.546;9.974;2024-02-21T03:44:48;101545.47;;;10.89;100.00
31062;BME280;17724;53.546;9.974;2024-02-21T03:48:48;101552.41;;;10.80;100.00
31062;BME280;17724;53.546;9.974;2024-02-21T03:52:49;101559.81;;;10.91;100.00
31062;BME280;17724;53.546;9.974;2024-02-21T03:56:49;101536.72;;;10.80;100.00
31062;BME280;17724;53.546;9.974;2024-02-21T04:00:50;101537.91;;;10.84;100.00
31062;BME280;17724;53.546;9.974;2024-02-21T04:04:50;101542.09;;;10.99;100.00
31062;BME280;17724;53.546;9.974;2024-02-21T04:08:51;101527.31;;;10.53;100.00
31062;BME280;17724;53.546;9.974;2024-02-21T04:12:51;101518.56;;;10.56;100.00
31062;BME280;17724;53.546;9.974;2024-02-21T04:16:51;101524.44;;;10.59;100.00
31062;BME280;17724;53.546;9.974;2024-02-21T04:20:52;101505.78;;;10.62;100.00
31062;BME280;17724;53.546;9.974;2024-02-21T04:24:52;101504.84;;;10.44;100.00
31062;BME280;17724;53.546;9.974;2024-02-21T04:28:53;101501.31;;;10.72;100.00
31062;BME280;17724;53.546;9.974;2024-02-21T04:32:53;101492.53;;;10.47;100.00
31062;BME280;17724;53.546;9.974;2024-02-21T04:36:54;101493.94;;;10.61;100.00
31062;BME280;17724;53.546;9.974;2024-02-21T04:40:55;101486.16;;;10.70;100.00
31062;BME280;17724;53.546;9.974;2024-02-21T04:44:58;101495.47;;;10.69;100.00
31062;BME280;17724;53.546;9.974;2024-02-21T04:48:59;101499.44;;;10.61;100.00
31062;BME280;17724;53.546;9.974;2024-02-21T04:52:59;101485.72;;;10.49;100.00
31062;BME280;17724;53.546;9.974;2024-02-21T04:56:59;101495.63;;;10.50;100.00
31062;BME280;17724;53.546;9.974;2024-02-21T05:01:00;101498.59;;;10.49;100.00
31062;BME280;17724;53.546;9.974;2024-02-21T05:05:00;101497.06;;;10.06;100.00
31062;BME280;17724;53.546;9.974;2024-02-21T05:09:01;101487.47;;;10.08;100.00
31062;BME280;17724;53.546;9.974;2024-02-21T05:13:01;101480.78;;;9.93;100.00
31062;BME280;17724;53.546;9.974;2024-02-21T05:17:02;101484.59;;;9.80;100.00
31062;BME280;17724;53.546;9.974;2024-02-21T05:21:03;101485.09;;;10.00;100.00
31062;BME280;17724;53.546;9.974;2024-02-21T05:25:03;101475.91;;;10.06;100.00
31062;BME280;17724;53.546;9.974;2024-02-21T05:29:04;101480.66;;;9.99;100.00
31062;BME280;17724;53.546;9.974;2024-02-21T05:33:08;101477.66;;;10.01;100.00
31062;BME280;17724;53.546;9.974;2024-02-21T05:37:08;101487.63;;;10.02;100.00
31062;BME280;17724;53.546;9.974;2024-02-21T05:41:08;101472.78;;;9.91;100.00
31062;BME280;17724;53.546;9.974;2024-02-21T05:45:09;101472.41;;;9.76;100.00
31062;BME280;17724;53.546;9.974;2024-02-21T05:49:09;101476.97;;;10.05;100.00
31062;BME280;17724;53.546;9.974;2024-02-21T05:53:10;101482.81;;;10.09;100.00
31062;BME280;17724;53.546;9.974;2024-02-21T05:57:11;101472.66;;;9.86;100.00
31062;BME280;17724;53.546;9.974;2024-02-21T06:01:11;101466.09;;;9.99;100.00
31062;BME280;17724;53.546;9.974;2024-02-21T06:05:12;101468.72;;;9.94;100.00
31062;BME280;17724;53.546;9.974;2024-02-21T06:09:12;101473.72;;;9.97;100.00
31062;BME280;17724;53.546;9.974;2024-02-21T06:13:13;101488.31;;;10.09;100.00
31062;BME280;17724;53.546;9.974;2024-02-21T06:17:14;101490.00;;;9.98;100.00
31062;BME280;17724;53.546;9.974;2024-02-21T06:21:14;101492.59;;;9.81;100.00
31062;BME280;17724;53.546;9.974;2024-02-21T06:25:17;101490.72;;;10.05;100.00
31062;BME280;17724;53.546;9.974;2024-02-21T06:29:17;101480.19;;;10.02;100.00
31062;BME280;17724;53.546;9.974;2024-02-21T06:33:18;101480.22;;;10.14;100.00
31062;BME280;17724;53.546;9.974;2024-02-21T06:37:18;101485.91;;;10.01;100.00
31062;BME280;17724;53.546;9.974;2024-02-21T06:41:19;101488.81;;;10.06;100.00
31062;BME280;17724;53.546;9.974;2024-02-21T06:45:19;101485.56;;;9.85;100.00
31062;BME280;17724;53.546;9.974;2024-02-21T06:49:20;101487.47;;;9.97;100.00
31062;BME280;17724;53.546;9.974;2024-02-21T06:53:20;101492.25;;;10.01;100.00
31062;BME280;17724;53.546;9.974;2024-02-21T06:57:21;101473.25;;;10.00;100.00
31062;BME280;17724;53.546;9.974;2024-02-21T07:01:21;101483.94;;;10.31;100.00
31062;BME280;17724;53.546;9.974;2024-02-21T07:05:22;101473.72;;;10.20;100.00
31062;BME280;17724;53.546;9.974;2024-02-21T07:09:22;101479.22;;;10.08;100.00
31062;BME280;17724;53.546;9.974;2024-02-21T07:13:23;101491.78;;;10.16;100.00
31062;BME280;17724;53.546;9.974;2024-02-21T07:17:23;101476.63;;;10.14;100.00
31062;BME280;17724;53.546;9.974;2024-02-21T07:21:24;101489.75;;;10.00;100.00
31062;BME280;17724;53.546;9.974;2024-02-21T07:25:24;101491.66;;;10.11;100.00
31062;BME280;17724;53.546;9.974;2024-02-21T07:29:25;101498.72;;;10.07;100.00
31062;BME280;17724;53.546;9.974;2024-02-21T07:33:25;101494.34;;;10.29;100.00
31062;BME280;17724;53.546;9.974;2024-02-21T07:37:26;101498.28;;;10.33;100.00
31062;BME280;17724;53.546;9.974;2024-02-21T07:41:27;101505.09;;;10.31;100.00
31062;BME280;17724;53.546;9.974;2024-02-21T07:45:30;101506.03;;;10.36;100.00
31062;BME280;17724;53.546;9.974;2024-02-21T07:49:31;101499.13;;;10.46;100.00
31062;BME280;17724;53.546;9.974;2024-02-21T07:53:31;101498.84;;;10.59;100.00
31062;BME280;17724;53.546;9.974;2024-02-21T07:57:32;101503.06;;;10.50;100.00
31062;BME280;17724;53.546;9.974;2024-02-21T08:01:33;101505.19;;;10.36;100.00
31062;BME280;17724;53.546;9.974;2024-02-21T08:05:36;101512.25;;;10.44;100.00
31062;BME280;17724;53.546;9.974;2024-02-21T08:09:39;101505.91;;;10.43;100.00
31062;BME280;17724;53.546;9.974;2024-02-21T08:13:40;101498.13;;;10.17;100.00
31062;BME280;17724;53.546;9.974;2024-02-21T08:17:41;101504.84;;;10.44;100.00
31062;BME280;17724;53.546;9.974;2024-02-21T08:21:41;101499.22;;;10.51;100.00
31062;BME280;17724;53.546;9.974;2024-02-21T08:25:42;101494.81;;;10.38;100.00
31062;BME280;17724;53.546;9.974;2024-02-21T08:29:42;101498.47;;;10.67;100.00
31062;BME280;17724;53.546;9.974;2024-02-21T08:33:43;101497.53;;;10.62;100.00
31062;BME280;17724;53.546;9.974;2024-02-21T08:37:44;101501.84;;;10.57;100.00
31062;BME280;17724;53.546;9.974;2024-02-21T08:41:44;101482.00;;;10.55;100.00
31062;BME280;17724;53.546;9.974;2024-02-21T08:45:45;101483.09;;;10.43;100.00
31062;BME280;17724;53.546;9.974;2024-02-21T08:49:45;101476.72;;;10.66;100.00
31062;BME280;17724;53.546;9.974;2024-02-21T08:53:46;101491.81;;;10.51;100.00
31062;BME280;17724;53.546;9.974;2024-02-21T08:57:47;101487.41;;;10.27;100.00
31062;BME280;17724;53.546;9.974;2024-02-21T09:01:48;101500.06;;;10.40;100.00
31062;BME280;17724;53.546;9.974;2024-02-21T09:05:48;101491.72;;;10.34;100.00
31062;BME280;17724;53.546;9.974;2024-02-21T09:09:49;101486.28;;;10.63;100.00
31062;BME280;17724;53.546;9.974;2024-02-21T09:13:49;101485.56;;;10.68;100.00
31062;BME280;17724;53.546;9.974;2024-02-21T09:17:50;101476.13;;;10.52;100.00
31062;BME280;17724;53.546;9.974;2024-02-21T09:21:50;101474.72;;;10.49;100.00
31062;BME280;17724;53.546;9.974;2024-02-21T09:25:51;101475.06;;;10.41;100.00
31062;BME280;17724;53.546;9.974;2024-02-21T09:29:52;101482.59;;;10.57;100.00
31062;BME280;17724;53.546;9.974;2024-02-21T09:33:52;101475.19;;;10.46;100.00
31062;BME280;17724;53.546;9.974;2024-02-21T09:37:53;101454.97;;;10.17;100.00
31062;BME280;17724;53.546;9.974;2024-02-21T09:41:59;101461.91;;;10.43;100.00
31062;BME280;17724;53.546;9.974;2024-02-21T09:46:00;101446.06;;;10.33;100.00
31062;BME280;17724;53.546;9.974;2024-02-21T09:50:02;101448.72;;;10.57;100.00
31062;BME280;17724;53.546;9.974;2024-02-21T09:58:07;101439.84;;;10.78;100.00
31062;BME280;17724;53.546;9.974;2024-02-21T10:02:08;101427.00;;;10.84;100.00
31062;BME280;17724;53.546;9.974;2024-02-21T10:06:08;101418.22;;;10.70;100.00
31062;BME280;17724;53.546;9.974;2024-02-21T10:10:10;101442.56;;;10.90;100.00
31062;BME280;17724;53.546;9.974;2024-02-21T10:14:10;101427.91;;;11.01;100.00
31062;BME280;17724;53.546;9.974;2024-02-21T10:18:11;101425.88;;;10.97;100.00
31062;BME280;17724;53.546;9.974;2024-02-21T10:22:11;101412.06;;;10.80;100.00
31062;BME280;17724;53.546;9.974;2024-02-21T10:26:13;101420.13;;;10.70;100.00
31062;BME280;17724;53.546;9.974;2024-02-21T10:30:14;101411.81;;;10.93;100.00
31062;BME280;17724;53.546;9.974;2024-02-21T10:34:16;101424.56;;;10.99;100.00
31062;BME280;17724;53.546;9.974;2024-02-21T10:38:18;101415.56;;;11.04;100.00
31062;BME280;17724;53.546;9.974;2024-02-21T10:42:21;101412.28;;;10.90;100.00
31062;BME280;17724;53.546;9.974;2024-02-21T10:46:23;101419.88;;;11.00;100.00
31062;BME280;17724;53.546;9.974;2024-02-21T10:50:24;101408.34;;;11.15;100.00
31062;BME280;17724;53.546;9.974;2024-02-21T10:54:44;101408.25;;;11.09;100.00
31062;BME280;17724;53.546;9.974;2024-02-21T10:58:50;101390.72;;;11.16;100.00
31062;BME280;17724;53.546;9.974;2024-02-21T11:02:51;101398.59;;;11.24;100.00
31062;BME280;17724;53.546;9.974;2024-02-21T11:06:52;101394.50;;;11.26;100.00
31062;BME280;17724;53.546;9.974;2024-02-21T11:10:56;101388.75;;;11.28;100.00
31062;BME280;17724;53.546;9.974;2024-02-21T11:15:05;101390.66;;;11.27;100.00
31062;BME280;17724;53.546;9.974;2024-02-21T11:19:07;101380.66;;;11.38;100.00
31062;BME280;17724;53.546;9.974;2024-02-21T11:23:08;101381.84;;;11.25;100.00
31062;BME280;17724;53.546;9.974;2024-02-21T11:27:11;101378.31;;;11.30;100.00
31062;BME280;17724;53.546;9.974;2024-02-21T11:31:14;101347.56;;;11.04;100.00
31062;BME280;17724;53.546;9.974;2024-02-21T11:35:20;101366.56;;;11.34;100.00
31062;BME280;17724;53.546;9.974;2024-02-21T11:39:25;101363.13;;;11.27;100.00
31062;BME280;17724;53.546;9.974;2024-02-21T11:43:26;101359.81;;;11.25;100.00
31062;BME280;17724;53.546;9.974;2024-02-21T11:47:28;101360.38;;;11.44;100.00
31062;BME280;17724;53.546;9.974;2024-02-21T11:51:29;101344.78;;;11.50;100.00
31062;BME280;17724;53.546;9.974;2024-02-21T11:55:29;101348.22;;;11.57;100.00
31062;BME280;17724;53.546;9.974;2024-02-21T11:59:31;101337.66;;;11.71;100.00
31062;BME280;17724;53.546;9.974;2024-02-21T12:03:32;101331.16;;;11.60;100.00
31062;BME280;17724;53.546;9.974;2024-02-21T12:07:36;101319.88;;;11.45;100.00
31062;BME280;17724;53.546;9.974;2024-02-21T12:11:37;101314.88;;;11.58;100.00
31062;BME280;17724;53.546;9.974;2024-02-21T12:15:41;101311.38;;;11.63;100.00
31062;BME280;17724;53.546;9.974;2024-02-21T12:19:41;101306.63;;;11.58;100.00
31062;BME280;17724;53.546;9.974;2024-02-21T12:23:42;101313.94;;;11.70;100.00
31062;BME280;17724;53.546;9.974;2024-02-21T12:27:42;101310.38;;;11.35;100.00
31062;BME280;17724;53.546;9.974;2024-02-21T12:31:43;101307.53;;;11.47;100.00
31062;BME280;17724;53.546;9.974;2024-02-21T12:35:43;101303.03;;;11.58;100.00
31062;BME280;17724;53.546;9.974;2024-02-21T12:39:44;101305.91;;;11.68;100.00
31062;BME280;17724;53.546;9.974;2024-02-21T12:43:44;101296.06;;;11.72;100.00
31062;BME280;17724;53.546;9.974;2024-02-21T12:47:46;101295.50;;;11.70;100.00
31062;BME280;17724;53.546;9.974;2024-02-21T12:51:46;101282.19;;;11.45;100.00
31062;BME280;17724;53.546;9.974;2024-02-21T12:55:48;101286.00;;;11.61;100.00
31062;BME280;17724;53.546;9.974;2024-02-21T12:59:48;101282.22;;;11.67;100.00
31062;BME280;17724;53.546;9.974;2024-02-21T13:03:49;101272.28;;;11.66;100.00
31062;BME280;17724;53.546;9.974;2024-02-21T13:07:49;101267.50;;;11.78;100.00
31062;BME280;17724;53.546;9.974;2024-02-21T13:11:50;101263.50;;;11.86;100.00
31062;BME280;17724;53.546;9.974;2024-02-21T13:15:51;101268.22;;;12.13;100.00
31062;BME280;17724;53.546;9.974;2024-02-21T13:19:52;101251.19;;;12.16;100.00
31062;BME280;17724;53.546;9.974;2024-02-21T13:23:52;101247.59;;;12.15;100.00
31062;BME280;17724;53.546;9.974;2024-02-21T13:27:53;101228.34;;;12.20;100.00
31062;BME280;17724;53.546;9.974;2024-02-21T13:31:53;101212.06;;;11.97;100.00
31062;BME280;17724;53.546;9.974;2024-02-21T13:35:54;101207.69;;;12.23;100.00
31062;BME280;17724;53.546;9.974;2024-02-21T13:39:55;101203.53;;;12.20;100.00
31062;BME280;17724;53.546;9.974;2024-02-21T13:43:56;101177.25;;;12.13;100.00
31062;BME280;17724;53.546;9.974;2024-02-21T13:47:57;101180.59;;;12.15;100.00
31062;BME280;17724;53.546;9.974;2024-02-21T13:51:58;101166.44;;;12.33;100.00
31062;BME280;17724;53.546;9.974;2024-02-21T13:56:01;101149.31;;;12.31;99.48
31062;BME280;17724;53.546;9.974;2024-02-21T14:00:04;101124.34;;;12.16;99.35
31062;BME280;17724;53.546;9.974;2024-02-21T14:04:12;101128.38;;;12.35;99.81
31062;BME280;17724;53.546;9.974;2024-02-21T14:08:12;101120.78;;;12.47;98.22
31062;BME280;17724;53.546;9.974;2024-02-21T14:12:14;101113.41;;;12.58;96.32
31062;BME280;17724;53.546;9.974;2024-02-21T14:16:16;101093.47;;;12.46;94.06
31062;BME280;17724;53.546;9.974;2024-02-21T14:20:16;101084.06;;;12.47;93.24
31062;BME280;17724;53.546;9.974;2024-02-21T14:24:17;101074.16;;;12.46;93.31
31062;BME280;17724;53.546;9.974;2024-02-21T14:28:17;101071.44;;;12.56;91.68
31062;BME280;17724;53.546;9.974;2024-02-21T14:32:18;101053.84;;;12.62;91.42
31062;BME280;17724;53.546;9.974;2024-02-21T14:36:18;101039.53;;;12.65;90.75
31062;BME280;17724;53.546;9.974;2024-02-21T14:40:19;101005.22;;;12.51;89.69
31062;BME280;17724;53.546;9.974;2024-02-21T14:44:21;101018.22;;;12.61;88.57
31062;BME280;17724;53.546;9.974;2024-02-21T14:48:21;101024.66;;;12.71;87.61
31062;BME280;17724;53.546;9.974;2024-02-21T14:52:21;101015.22;;;12.62;88.40
31062;BME280;17724;53.546;9.974;2024-02-21T14:56:22;100995.63;;;12.64;88.53
31062;BME280;17724;53.546;9.974;2024-02-21T15:00:24;101000.94;;;12.80;89.24
31062;BME280;17724;53.546;9.974;2024-02-21T15:04:30;100993.75;;;12.69;88.58
31062;BME280;17724;53.546;9.974;2024-02-21T15:08:31;100982.72;;;12.74;88.00
31062;BME280;17724;53.546;9.974;2024-02-21T15:12:31;100984.63;;;12.69;86.58
31062;BME280;17724;53.546;9.974;2024-02-21T15:16:32;100979.94;;;12.69;86.27
31062;BME280;17724;53.546;9.974;2024-02-21T15:20:33;100958.16;;;12.73;86.75
31062;BME280;17724;53.546;9.974;2024-02-21T15:24:34;100961.91;;;12.56;86.15
31062;BME280;17724;53.546;9.974;2024-02-21T15:28:34;100949.66;;;12.32;84.85
31062;BME280;17724;53.546;9.974;2024-02-21T15:32:35;100922.03;;;12.27;85.46
31062;BME280;17724;53.546;9.974;2024-02-21T15:36:37;100921.84;;;12.39;85.76
31062;BME280;17724;53.546;9.974;2024-02-21T15:40:37;100925.72;;;12.43;84.74
31062;BME280;17724;53.546;9.974;2024-02-21T15:44:38;100934.81;;;12.38;83.75
31062;BME280;17724;53.546;9.974;2024-02-21T15:48:39;100925.94;;;12.31;82.90
31062;BME280;17724;53.546;9.974;2024-02-21T15:52:40;100903.56;;;12.27;82.76
31062;BME280;17724;53.546;9.974;2024-02-21T15:56:40;100892.00;;;12.30;82.92
31062;BME280;17724;53.546;9.974;2024-02-21T16:00:41;100880.19;;;12.40;82.60
31062;BME280;17724;53.546;9.974;2024-02-21T16:04:42;100867.22;;;12.36;83.08
31062;BME280;17724;53.546;9.974;2024-02-21T16:08:42;100843.72;;;12.23;83.59
31062;BME280;17724;53.546;9.974;2024-02-21T16:12:43;100824.44;;;12.28;82.84
31062;BME280;17724;53.546;9.974;2024-02-21T16:16:51;100795.53;;;11.83;81.61
31062;BME280;17724;53.546;9.974;2024-02-21T16:20:51;100771.44;;;11.63;84.24
31062;BME280;17724;53.546;9.974;2024-02-21T16:24:52;100797.59;;;12.08;86.39
31062;BME280;17724;53.546;9.974;2024-02-21T16:28:54;100824.34;;;12.13;83.96
31062;BME280;17724;53.546;9.974;2024-02-21T16:32:55;100819.75;;;12.28;84.24
31062;BME280;17724;53.546;9.974;2024-02-21T16:36:56;100823.34;;;12.29;83.60
31062;BME280;17724;53.546;9.974;2024-02-21T16:40:59;100836.28;;;12.23;82.24
31062;BME280;17724;53.546;9.974;2024-02-21T16:45:00;100813.88;;;12.10;81.72
31062;BME280;17724;53.546;9.974;2024-02-21T16:49:01;100818.59;;;12.14;81.28
31062;BME280;17724;53.546;9.974;2024-02-21T16:53:01;100824.13;;;12.24;80.60
31062;BME280;17724;53.546;9.974;2024-02-21T16:57:04;100814.91;;;11.93;80.05
31062;BME280;17724;53.546;9.974;2024-02-21T17:01:05;100798.16;;;12.10;81.97
31062;BME280;17724;53.546;9.974;2024-02-21T17:05:06;100799.84;;;12.16;82.83
31062;BME280;17724;53.546;9.974;2024-02-21T17:09:08;100805.13;;;12.23;82.19
31062;BME280;17724;53.546;9.974;2024-02-21T17:13:10;100793.47;;;12.11;81.98
31062;BME280;17724;53.546;9.974;2024-02-21T17:17:10;100787.66;;;12.07;80.99
31062;BME280;17724;53.546;9.974;2024-02-21T17:21:11;100768.97;;;12.14;81.40
31062;BME280;17724;53.546;9.974;2024-02-21T17:25:12;100757.69;;;12.21;84.93
31062;BME280;17724;53.546;9.974;2024-02-21T17:29:13;100756.88;;;12.25;82.64
31062;BME280;17724;53.546;9.974;2024-02-21T17:33:14;100750.50;;;12.15;82.48
31062;BME280;17724;53.546;9.974;2024-02-21T17:37:14;100736.41;;;12.06;81.85
31062;BME280;17724;53.546;9.974;2024-02-21T17:41:15;100720.13;;;12.04;83.12
31062;BME280;17724;53.546;9.974;2024-02-21T17:45:16;100716.00;;;12.02;83.09
31062;BME280;17724;53.546;9.974;2024-02-21T17:49:17;100704.97;;;12.02;84.70
31062;BME280;17724;53.546;9.974;2024-02-21T17:53:19;100705.78;;;12.02;84.77
31062;BME280;17724;53.546;9.974;2024-02-21T17:57:19;100692.56;;;12.04;85.56
31062;BME280;17724;53.546;9.974;2024-02-21T18:01:20;100695.59;;;12.03;83.91
31062;BME280;17724;53.546;9.974;2024-02-21T18:05:20;100684.03;;;12.11;84.19
31062;BME280;17724;53.546;9.974;2024-02-21T18:09:21;100667.19;;;11.97;84.38
31062;BME280;17724;53.546;9.974;2024-02-21T18:13:22;100658.25;;;11.75;84.62
31062;BME280;17724;53.546;9.974;2024-02-21T18:17:23;100639.88;;;11.86;85.56
31062;BME280;17724;53.546;9.974;2024-02-21T18:21:23;100639.56;;;11.82;85.76
31062;BME280;17724;53.546;9.974;2024-02-21T18:25:24;100628.69;;;11.55;84.36
31062;BME280;17724;53.546;9.974;2024-02-21T18:29:26;100616.06;;;11.64;86.58
31062;BME280;17724;53.546;9.974;2024-02-21T18:33:27;100618.22;;;11.47;85.45
31062;BME280;17724;53.546;9.974;2024-02-21T18:37:29;100602.50;;;11.42;85.85
31062;BME280;17724;53.546;9.974;2024-02-21T18:41:29;100587.97;;;11.57;87.77
31062;BME280;17724;53.546;9.974;2024-02-21T18:45:30;100578.03;;;11.56;88.51
31062;BME280;17724;53.546;9.974;2024-02-21T18:49:31;100558.22;;;11.59;89.33
31062;BME280;17724;53.546;9.974;2024-02-21T18:53:31;100560.66;;;11.50;88.72
31062;BME280;17724;53.546;9.974;2024-02-21T18:57:35;100548.25;;;11.48;87.13
31062;BME280;17724;53.546;9.974;2024-02-21T19:01:35;100537.28;;;11.68;87.09
31062;BME280;17724;53.546;9.974;2024-02-21T19:05:36;100544.22;;;11.81;86.32
31062;BME280;17724;53.546;9.974;2024-02-21T19:09:36;100528.78;;;11.75;83.91
31062;BME280;17724;53.546;9.974;2024-02-21T19:13:37;100543.91;;;11.57;85.55
31062;BME280;17724;53.546;9.974;2024-02-21T19:17:38;100535.09;;;11.70;86.47
31062;BME280;17724;53.546;9.974;2024-02-21T19:21:39;100519.59;;;11.39;84.91
31062;BME280;17724;53.546;9.974;2024-02-21T19:25:43;100511.94;;;11.51;86.49
31062;BME280;17724;53.546;9.974;2024-02-21T19:29:43;100515.44;;;11.36;86.95
31062;BME280;17724;53.546;9.974;2024-02-21T19:33:44;100496.47;;;11.40;87.22
31062;BME280;17724;53.546;9.974;2024-02-21T19:37:45;100495.22;;;11.00;86.10
31062;BME280;17724;53.546;9.974;2024-02-21T19:41:45;100475.44;;;11.08;86.98
31062;BME280;17724;53.546;9.974;2024-02-21T19:45:46;100464.16;;;11.04;86.06
31062;BME280;17724;53.546;9.974;2024-02-21T19:49:47;100457.81;;;11.09;87.57
31062;BME280;17724;53.546;9.974;2024-02-21T19:53:47;100465.09;;;11.46;85.42
31062;BME280;17724;53.546;9.974;2024-02-21T19:57:48;100454.63;;;11.53;85.04
31062;BME280;17724;53.546;9.974;2024-02-21T20:01:49;100440.63;;;11.70;84.59
31062;BME280;17724;53.546;9.974;2024-02-21T20:05:51;100434.84;;;11.66;83.79
31062;BME280;17724;53.546;9.974;2024-02-21T20:09:52;100437.06;;;11.69;81.97
31062;BME280;17724;53.546;9.974;2024-02-21T20:13:53;100422.44;;;11.69;81.94
31062;BME280;17724;53.546;9.974;2024-02-21T20:17:53;100413.38;;;11.73;82.27
31062;BME280;17724;53.546;9.974;2024-02-21T20:21:58;100411.69;;;11.82;81.30
31062;BME280;17724;53.546;9.974;2024-02-21T20:25:58;100403.72;;;11.81;82.21
31062;BME280;17724;53.546;9.974;2024-02-21T20:29:59;100400.38;;;11.69;81.64
31062;BME280;17724;53.546;9.974;2024-02-21T20:34:08;100377.81;;;11.67;83.05
31062;BME280;17724;53.546;9.974;2024-02-21T20:38:09;100375.59;;;11.48;83.75
31062;BME280;17724;53.546;9.974;2024-02-21T20:42:09;100372.31;;;11.62;85.38
31062;BME280;17724;53.546;9.974;2024-02-21T20:46:10;100332.09;;;11.35;84.90
31062;BME280;17724;53.546;9.974;2024-02-21T20:50:11;100338.19;;;11.37;85.89